Startpagina
METAR-TAF:

METAR-TAF

Vliegvelden :

L9-ff-1, Nederland

Productieplatform

breedte: 53-36-52N, lengte: 4-57-37E, hoogte: 30 m

Actueel weer

Dit bericht is 25 minuten geleden gemaakt, om 05:55 UTC
Wind 33 kt uit het zuidzuidoosten
Temperatuur 2°C
Vochtigheid 100%
Druk 979 hPa
Weinig wolken op 200 ft
Gebroken wolken op 300 ft
Gebroken wolken op 500 ft
Weinig wolken op 1500 ft, Cumulonimbus.

METAR: EHMG 180555Z AUTO 15033KT //// // FEW002 BKN003 BKN005 FEW015CB 02/02 Q0979 RE// W///H///

Tijdstip: 07:20 (06:20 UTC)


TAF: ontbreekt

Waarnemingen en weersverwachtingen van meer dan 4000 vliegvelden (METAR en TAF).

De beschikbare stations zijn de gele en rode punten op de kaart.

Ga met uw muis naar het station om de naam te zien.

Klik dan om waarnemingen en weersverwachtingen te zien.

kaart wijzigen: klik op de groene knoppen met een zwart kruis om in te zoomen, op de groene knop met een streepje om uit te zoomen of op de groene pijlen voor aangrenzende kaarten.


METAR-TAF: